createdAt,value
2022-11-15T00:10:21.328Z,3.40
2022-11-15T00:24:21.323Z,3.10
2022-11-15T00:38:21.350Z,3.00
2022-11-15T00:52:21.343Z,2.90
2022-11-15T01:06:21.344Z,2.70
2022-11-15T01:20:21.413Z,2.40
2022-11-15T01:34:21.366Z,2.70
2022-11-15T01:48:21.358Z,2.50
2022-11-15T02:02:21.359Z,1.90
2022-11-15T02:16:21.369Z,2.20
2022-11-15T02:30:21.352Z,1.90
2022-11-15T02:44:21.454Z,1.90
2022-11-15T02:58:21.392Z,1.70
2022-11-15T03:12:21.386Z,1.60
2022-11-15T03:26:21.383Z,1.50
2022-11-15T03:40:21.388Z,1.70
2022-11-15T03:54:21.392Z,1.30
2022-11-15T04:08:21.422Z,1.20
2022-11-15T04:22:21.410Z,1.30
2022-11-15T04:36:21.392Z,1.20
2022-11-15T04:50:21.422Z,1.20
2022-11-15T05:04:21.418Z,1.10
2022-11-15T05:18:23.675Z,1.20
2022-11-15T05:32:21.427Z,1.00
2022-11-15T05:46:21.423Z,1.30
2022-11-15T06:00:21.465Z,1.90
2022-11-15T06:15:21.467Z,2.90
2022-11-15T06:30:21.468Z,3.20
2022-11-15T06:45:21.483Z,2.80
2022-11-15T07:00:21.485Z,2.80
2022-11-15T07:15:21.477Z,2.70
2022-11-15T07:30:21.533Z,2.50
2022-11-15T07:45:21.494Z,2.30
2022-11-15T08:00:21.491Z,2.25
2022-11-15T08:15:21.488Z,2.00
2022-11-15T08:30:21.499Z,2.00
2022-11-15T08:46:21.555Z,1.90
2022-11-15T09:01:21.782Z,1.60
2022-11-15T09:16:21.740Z,2.20
2022-11-15T09:31:22.391Z,2.20
2022-11-15T09:46:21.734Z,2.10
2022-11-15T10:01:21.836Z,2.10
2022-11-15T10:16:21.813Z,2.20
2022-11-15T10:31:21.819Z,2.35
2022-11-15T10:46:44.889Z,2.35
2022-11-15T11:01:21.846Z,2.20
2022-11-15T11:16:21.879Z,2.55
2022-11-15T11:31:21.879Z,2.50
2022-11-15T11:46:21.903Z,2.75
2022-11-15T12:02:22.063Z,3.00
2022-11-15T12:17:21.902Z,3.10
2022-11-15T12:32:21.909Z,3.50
2022-11-15T12:47:23.223Z,3.30
2022-11-15T13:02:21.953Z,3.40
2022-11-15T13:17:21.975Z,3.10
2022-11-15T13:32:21.995Z,3.20
2022-11-15T13:47:22.022Z,3.30
2022-11-15T14:02:22.038Z,3.10
2022-11-15T14:17:22.093Z,3.80
2022-11-15T14:32:22.109Z,4.20
2022-11-15T14:47:22.192Z,4.60
2022-11-15T15:03:22.164Z,4.70
2022-11-15T15:18:22.288Z,4.50
2022-11-15T15:33:22.289Z,4.40
2022-11-15T15:48:22.414Z,5.05
2022-11-15T16:03:22.561Z,5.20
2022-11-15T16:18:22.566Z,4.80
2022-11-15T16:33:22.662Z,4.80
2022-11-15T16:47:22.659Z,4.90
2022-11-15T17:01:22.767Z,4.80
2022-11-15T17:15:22.758Z,5.20
2022-11-15T17:29:22.751Z,4.60
2022-11-15T17:43:22.781Z,5.10
2022-11-15T17:57:22.773Z,4.80
2022-11-15T18:11:22.863Z,5.30
2022-11-15T18:25:22.857Z,4.90
2022-11-15T18:39:22.848Z,5.40
2022-11-15T18:53:22.857Z,5.10
2022-11-15T19:07:22.965Z,5.50
2022-11-15T19:21:22.871Z,5.70
2022-11-15T19:35:22.877Z,6.20
2022-11-15T19:49:22.892Z,6.10
2022-11-15T20:03:22.864Z,6.40
2022-11-15T20:17:22.893Z,6.85
2022-11-15T20:31:22.893Z,7.40
2022-11-15T20:45:22.895Z,7.30
2022-11-15T20:59:22.868Z,7.90
2022-11-15T21:13:22.895Z,8.10
2022-11-15T21:27:22.920Z,8.00
2022-11-15T21:41:22.921Z,7.80
2022-11-15T22:09:23.067Z,7.90
2022-11-15T22:23:23.101Z,7.70
2022-11-15T22:37:23.107Z,7.70
2022-11-15T22:51:23.108Z,7.90
2022-11-15T23:05:23.092Z,7.00
2022-11-15T23:19:23.097Z,6.90
2022-11-15T23:33:23.149Z,7.00
2022-11-15T23:47:23.182Z,6.20
